createdAt,value
2018-07-19T00:00:06.861Z,2.90
2018-07-19T00:01:06.860Z,2.90
2018-07-19T00:02:06.945Z,2.90
2018-07-19T00:03:06.918Z,2.90
2018-07-19T00:04:06.825Z,2.90
2018-07-19T00:05:06.926Z,2.90
2018-07-19T00:06:06.994Z,2.90
2018-07-19T00:07:06.920Z,2.90
2018-07-19T00:08:07.026Z,2.90
2018-07-19T00:09:06.941Z,2.90
2018-07-19T00:10:06.953Z,2.70
2018-07-19T00:11:06.926Z,2.70
2018-07-19T00:12:06.942Z,2.70
2018-07-19T00:13:06.832Z,2.70
2018-07-19T00:14:06.941Z,2.70
2018-07-19T00:15:06.895Z,2.70
2018-07-19T00:16:06.886Z,2.70
2018-07-19T00:17:06.960Z,2.70
2018-07-19T00:18:06.834Z,2.70
2018-07-19T00:19:07.089Z,2.70
2018-07-19T00:20:06.928Z,5.40
2018-07-19T00:21:06.923Z,5.40
2018-07-19T00:22:06.889Z,5.40
2018-07-19T00:23:06.873Z,5.40
2018-07-19T00:24:06.930Z,5.40
2018-07-19T00:25:06.861Z,5.40
2018-07-19T00:26:06.856Z,5.40
2018-07-19T00:27:06.854Z,5.40
2018-07-19T00:28:06.840Z,5.40
2018-07-19T00:29:06.933Z,5.40
2018-07-19T00:30:06.933Z,2.90
2018-07-19T00:31:06.839Z,2.90
2018-07-19T00:32:06.981Z,2.90
2018-07-19T00:33:06.845Z,2.90
2018-07-19T00:34:06.967Z,2.90
2018-07-19T00:35:06.920Z,2.90
2018-07-19T00:36:06.911Z,2.90
2018-07-19T00:37:06.944Z,2.90
2018-07-19T00:38:06.880Z,2.90
2018-07-19T00:39:06.871Z,2.90
2018-07-19T00:40:06.876Z,2.70
2018-07-19T00:41:06.949Z,2.70
2018-07-19T00:42:06.880Z,2.70
2018-07-19T00:43:06.947Z,2.70
2018-07-19T00:44:06.964Z,2.70
2018-07-19T00:45:06.950Z,2.70
2018-07-19T00:46:06.951Z,2.70
2018-07-19T00:47:06.908Z,2.70
2018-07-19T00:48:06.887Z,2.70
2018-07-19T00:49:06.954Z,2.70
2018-07-19T00:50:06.823Z,3.70
2018-07-19T00:51:06.859Z,3.70
2018-07-19T00:52:06.913Z,3.70
2018-07-19T00:53:06.895Z,3.70
2018-07-19T00:54:06.948Z,3.70
2018-07-19T00:55:06.902Z,3.70
2018-07-19T00:56:06.871Z,3.70
2018-07-19T00:57:06.828Z,3.70
2018-07-19T00:58:06.874Z,3.70
2018-07-19T00:59:06.835Z,3.70
2018-07-19T01:00:06.960Z,3.99
2018-07-19T01:01:06.878Z,3.99
2018-07-19T01:02:06.961Z,3.99
2018-07-19T01:03:06.923Z,3.99
2018-07-19T01:04:07.011Z,3.99
2018-07-19T01:05:06.990Z,3.99
2018-07-19T01:06:06.940Z,3.99
2018-07-19T01:07:06.990Z,3.99
2018-07-19T01:08:06.939Z,3.99
2018-07-19T01:09:06.926Z,3.99
2018-07-19T01:10:06.973Z,3.20
2018-07-19T01:11:06.884Z,3.20
2018-07-19T01:12:06.945Z,3.20
2018-07-19T01:13:06.885Z,3.20
2018-07-19T01:14:06.865Z,3.20
2018-07-19T01:15:07.029Z,3.20
2018-07-19T01:16:06.967Z,3.20
2018-07-19T01:17:06.992Z,3.20
2018-07-19T01:18:06.906Z,3.20
2018-07-19T01:19:06.892Z,3.20
2018-07-19T01:20:07.001Z,2.60
2018-07-19T01:21:06.935Z,2.60
2018-07-19T01:22:06.970Z,2.60
2018-07-19T01:23:07.002Z,2.60
2018-07-19T01:24:07.013Z,2.60
2018-07-19T01:25:06.979Z,2.60
2018-07-19T01:26:07.024Z,2.60
2018-07-19T01:27:07.024Z,2.60
2018-07-19T01:28:07.016Z,2.60
2018-07-19T01:29:07.000Z,2.60
2018-07-19T01:30:06.955Z,4.70
2018-07-19T01:31:06.980Z,4.70
2018-07-19T01:32:06.958Z,4.70
2018-07-19T01:33:06.889Z,4.70
2018-07-19T01:34:07.009Z,4.70
2018-07-19T01:35:06.951Z,4.70
2018-07-19T01:36:06.923Z,4.70
2018-07-19T01:37:06.988Z,4.70
2018-07-19T01:38:06.906Z,4.70
2018-07-19T01:39:07.023Z,4.70
2018-07-19T01:40:06.923Z,2.80
2018-07-19T01:41:06.918Z,2.80
2018-07-19T01:42:06.917Z,2.80
2018-07-19T01:43:06.978Z,2.80
2018-07-19T01:44:06.927Z,2.80
2018-07-19T01:45:06.922Z,2.80
2018-07-19T01:46:06.990Z,2.80
2018-07-19T01:47:06.921Z,2.80
2018-07-19T01:48:06.921Z,2.80
2018-07-19T01:49:06.990Z,2.80
2018-07-19T01:50:06.994Z,2.20
2018-07-19T01:51:06.993Z,2.20
2018-07-19T01:52:06.996Z,2.20
2018-07-19T01:53:06.995Z,2.20
2018-07-19T01:54:06.994Z,2.20
2018-07-19T01:55:06.926Z,2.20
2018-07-19T01:56:06.999Z,2.20
2018-07-19T01:57:06.996Z,2.20
2018-07-19T01:58:06.999Z,2.20
2018-07-19T01:59:06.933Z,2.20
2018-07-19T02:00:07.158Z,3.99
2018-07-19T02:01:06.932Z,3.99
2018-07-19T02:02:06.934Z,3.99
2018-07-19T02:03:06.933Z,3.99
2018-07-19T02:04:07.005Z,3.99
2018-07-19T02:05:07.010Z,3.99
2018-07-19T02:06:07.007Z,3.99
2018-07-19T02:07:07.001Z,3.99
2018-07-19T02:08:07.002Z,3.99
2018-07-19T02:09:07.042Z,3.99
2018-07-19T02:10:07.034Z,2.40
2018-07-19T02:11:06.975Z,2.40
2018-07-19T02:12:07.031Z,2.40
2018-07-19T02:13:07.036Z,2.40
2018-07-19T02:14:06.977Z,2.40
2018-07-19T02:15:07.036Z,2.40
2018-07-19T02:16:07.032Z,2.40
2018-07-19T02:17:06.928Z,2.40
2018-07-19T02:18:06.919Z,2.40
2018-07-19T02:19:06.969Z,2.40
2018-07-19T02:20:07.013Z,2.60
2018-07-19T02:21:06.950Z,2.60
2018-07-19T02:22:06.947Z,2.60
2018-07-19T02:23:06.962Z,2.60
2018-07-19T02:24:07.019Z,2.60
2018-07-19T02:25:06.949Z,2.60
2018-07-19T02:26:06.951Z,2.60
2018-07-19T02:27:07.023Z,2.60
2018-07-19T02:28:07.019Z,2.60
2018-07-19T02:29:06.956Z,2.60
2018-07-19T02:30:06.943Z,2.80
2018-07-19T02:31:07.018Z,2.80
2018-07-19T02:32:07.068Z,2.80
2018-07-19T02:33:06.942Z,2.80
2018-07-19T02:34:06.998Z,2.80
2018-07-19T02:35:07.056Z,2.80
2018-07-19T02:36:07.065Z,2.80
2018-07-19T02:37:06.961Z,2.80
2018-07-19T02:38:07.025Z,2.80
2018-07-19T02:39:07.053Z,2.80
2018-07-19T02:40:07.056Z,3.99
2018-07-19T02:41:07.066Z,3.99
2018-07-19T02:42:07.049Z,3.99
2018-07-19T02:43:07.002Z,3.99
2018-07-19T02:44:06.949Z,3.99
2018-07-19T02:45:07.049Z,3.99
2018-07-19T02:46:07.003Z,3.99
2018-07-19T02:47:07.062Z,3.99
2018-07-19T02:48:07.063Z,3.99
2018-07-19T02:49:06.957Z,3.99
2018-07-19T02:50:06.922Z,3.99
2018-07-19T02:51:06.924Z,3.99
2018-07-19T02:52:07.045Z,3.99
2018-07-19T02:53:06.964Z,3.99
2018-07-19T02:54:06.927Z,3.99
2018-07-19T02:55:06.899Z,3.99
2018-07-19T02:56:07.029Z,3.99
2018-07-19T02:57:06.994Z,3.99
2018-07-19T02:58:06.941Z,3.99
2018-07-19T02:59:06.933Z,3.99
2018-07-19T03:00:06.931Z,3.99
2018-07-19T03:01:07.061Z,4.30
2018-07-19T03:02:07.025Z,4.30
2018-07-19T03:03:07.015Z,4.30
2018-07-19T03:04:07.002Z,4.30
2018-07-19T03:05:07.044Z,4.30
2018-07-19T03:06:07.043Z,4.30
2018-07-19T03:07:07.045Z,4.30
2018-07-19T03:08:07.005Z,4.30
2018-07-19T03:09:06.989Z,4.30
2018-07-19T03:10:06.996Z,4.30
2018-07-19T03:11:07.028Z,3.99
2018-07-19T03:12:07.071Z,3.99
2018-07-19T03:13:07.071Z,3.99
2018-07-19T03:14:07.026Z,3.99
2018-07-19T03:15:07.086Z,3.99
2018-07-19T03:16:06.971Z,3.99
2018-07-19T03:17:07.050Z,3.99
2018-07-19T03:18:07.081Z,3.99
2018-07-19T03:19:06.972Z,3.99
2018-07-19T03:20:07.151Z,3.99
2018-07-19T03:21:07.056Z,3.99
2018-07-19T03:22:07.096Z,3.99
2018-07-19T03:23:07.030Z,3.99
2018-07-19T03:24:07.020Z,3.99
2018-07-19T03:25:07.057Z,3.99
2018-07-19T03:26:07.091Z,3.99
2018-07-19T03:27:06.993Z,3.99
2018-07-19T03:28:07.025Z,3.99
2018-07-19T03:29:07.115Z,3.99
2018-07-19T03:30:06.991Z,3.99
2018-07-19T03:31:07.121Z,2.70
2018-07-19T03:32:06.997Z,2.70
2018-07-19T03:33:06.998Z,2.70
2018-07-19T03:34:07.064Z,2.70
2018-07-19T03:35:07.033Z,2.70
2018-07-19T03:36:07.001Z,2.70
2018-07-19T03:37:06.999Z,2.70
2018-07-19T03:38:07.069Z,2.70
2018-07-19T03:39:07.013Z,2.70
2018-07-19T03:40:07.109Z,2.70
2018-07-19T03:41:07.000Z,5.70
2018-07-19T03:42:07.067Z,5.70
2018-07-19T03:43:07.004Z,5.70
2018-07-19T03:44:07.072Z,5.70
2018-07-19T03:45:07.007Z,5.70
2018-07-19T03:46:07.005Z,5.70
2018-07-19T03:47:07.002Z,5.70
2018-07-19T03:48:07.070Z,5.70
2018-07-19T03:49:07.007Z,5.70
2018-07-19T03:50:07.072Z,5.70
2018-07-19T03:51:07.027Z,3.20
2018-07-19T03:52:06.976Z,3.20
2018-07-19T03:53:07.063Z,3.20
2018-07-19T03:54:06.961Z,3.20
2018-07-19T03:55:07.065Z,3.20
2018-07-19T03:56:07.072Z,3.20
2018-07-19T03:57:07.065Z,3.20
2018-07-19T03:58:07.078Z,3.20
2018-07-19T03:59:07.014Z,3.20
2018-07-19T04:00:07.027Z,3.20
2018-07-19T04:01:07.048Z,3.30
2018-07-19T04:02:07.078Z,3.30
2018-07-19T04:03:07.049Z,3.30
2018-07-19T04:04:07.106Z,3.30
2018-07-19T04:05:07.102Z,3.30
2018-07-19T04:06:07.122Z,3.30
2018-07-19T04:07:07.088Z,3.30
2018-07-19T04:08:07.039Z,3.30
2018-07-19T04:09:07.147Z,3.30
2018-07-19T04:10:07.063Z,3.30
2018-07-19T04:11:07.112Z,2.80
2018-07-19T04:12:07.087Z,2.80
2018-07-19T04:13:07.029Z,2.80
2018-07-19T04:14:07.104Z,2.80
2018-07-19T04:15:07.089Z,2.80
2018-07-19T04:16:07.057Z,2.80
2018-07-19T04:17:07.143Z,2.80
2018-07-19T04:18:07.123Z,2.80
2018-07-19T04:19:07.115Z,2.80
2018-07-19T04:20:07.107Z,2.80
2018-07-19T04:21:07.128Z,3.30
2018-07-19T04:22:07.124Z,3.30
2018-07-19T04:23:06.995Z,3.30
2018-07-19T04:24:07.129Z,3.30
2018-07-19T04:25:07.136Z,3.30
2018-07-19T04:26:07.124Z,3.30
2018-07-19T04:27:07.118Z,3.30
2018-07-19T04:28:07.055Z,3.30
2018-07-19T04:29:07.097Z,3.30
2018-07-19T04:30:07.118Z,3.30
2018-07-19T04:31:07.083Z,3.90
2018-07-19T04:32:07.045Z,3.90
2018-07-19T04:33:07.051Z,3.90
2018-07-19T04:34:06.988Z,3.90
2018-07-19T04:35:07.030Z,3.90
2018-07-19T04:36:07.104Z,3.90
2018-07-19T04:37:06.974Z,3.90
2018-07-19T04:38:07.019Z,3.90
2018-07-19T04:39:07.088Z,3.90
2018-07-19T04:40:07.089Z,3.90
2018-07-19T04:41:07.013Z,4.30
2018-07-19T04:42:07.061Z,4.30
2018-07-19T04:43:06.975Z,4.30
2018-07-19T04:44:07.093Z,4.30
2018-07-19T04:45:07.034Z,4.30
2018-07-19T04:46:07.017Z,4.30
2018-07-19T04:47:06.976Z,4.30
2018-07-19T04:48:07.055Z,4.30
2018-07-19T04:49:07.110Z,4.30
2018-07-19T04:50:07.063Z,4.30
2018-07-19T04:51:06.978Z,4.00
2018-07-19T04:52:06.983Z,4.00
2018-07-19T04:53:07.107Z,4.00
2018-07-19T04:54:07.046Z,4.00
2018-07-19T04:55:07.045Z,4.00
2018-07-19T04:56:07.048Z,4.00
2018-07-19T04:57:06.988Z,4.00
2018-07-19T04:58:07.071Z,4.00
2018-07-19T04:59:07.104Z,4.00
2018-07-19T05:00:07.066Z,4.00
2018-07-19T05:01:07.054Z,4.60
2018-07-19T05:02:07.069Z,4.60
2018-07-19T05:03:07.053Z,4.60
2018-07-19T05:04:07.124Z,4.60
2018-07-19T05:05:07.119Z,4.60
2018-07-19T05:06:07.072Z,4.60
2018-07-19T05:07:07.054Z,4.60
2018-07-19T05:08:07.132Z,4.60
2018-07-19T05:09:07.128Z,4.60
2018-07-19T05:10:07.126Z,4.60
2018-07-19T05:11:07.123Z,4.50
2018-07-19T05:12:07.061Z,4.50
2018-07-19T05:13:07.063Z,4.50
2018-07-19T05:14:07.137Z,4.50
2018-07-19T05:15:07.128Z,4.50
2018-07-19T05:16:07.062Z,4.50
2018-07-19T05:17:07.066Z,4.50
2018-07-19T05:18:07.127Z,4.50
2018-07-19T05:19:07.061Z,4.50
2018-07-19T05:20:07.131Z,4.50
2018-07-19T05:21:07.055Z,5.80
2018-07-19T05:22:07.136Z,5.80
2018-07-19T05:23:07.244Z,5.80
2018-07-19T05:24:07.105Z,5.80
2018-07-19T05:25:07.116Z,5.80
2018-07-19T05:26:07.135Z,5.80
2018-07-19T05:27:07.103Z,5.80
2018-07-19T05:28:07.156Z,5.80
2018-07-19T05:29:07.042Z,5.80
2018-07-19T05:30:07.152Z,5.80
2018-07-19T05:31:07.080Z,4.70
2018-07-19T05:32:07.017Z,4.70
2018-07-19T05:33:07.029Z,4.70
2018-07-19T05:34:07.065Z,4.70
2018-07-19T05:35:07.013Z,4.70
2018-07-19T05:36:07.123Z,4.70
2018-07-19T05:37:07.079Z,4.70
2018-07-19T05:38:07.040Z,4.70
2018-07-19T05:39:07.070Z,4.70
2018-07-19T05:40:07.126Z,4.70
2018-07-19T05:41:07.146Z,4.40
2018-07-19T05:42:07.185Z,4.40
2018-07-19T05:43:07.051Z,4.40
2018-07-19T05:44:07.070Z,4.40
2018-07-19T05:45:07.147Z,4.40
2018-07-19T05:46:07.175Z,4.40
2018-07-19T05:47:07.198Z,4.40
2018-07-19T05:48:07.123Z,4.40
2018-07-19T05:49:07.169Z,4.40
2018-07-19T05:50:07.169Z,4.40
2018-07-19T05:51:07.118Z,4.80
2018-07-19T05:52:07.091Z,4.80
2018-07-19T05:53:07.102Z,4.80
2018-07-19T05:54:07.057Z,4.80
2018-07-19T05:55:07.091Z,4.80
2018-07-19T05:56:07.091Z,4.80
2018-07-19T05:57:07.157Z,4.80
2018-07-19T05:58:07.212Z,4.80
2018-07-19T05:59:07.097Z,4.80
2018-07-19T06:00:07.159Z,4.80
2018-07-19T06:01:07.068Z,6.99
2018-07-19T06:02:07.098Z,6.99
2018-07-19T06:03:07.163Z,6.99
2018-07-19T06:04:07.164Z,6.99
2018-07-19T06:05:07.119Z,6.99
2018-07-19T06:06:07.139Z,6.99
2018-07-19T06:07:07.128Z,6.99
2018-07-19T06:08:07.145Z,6.99
2018-07-19T06:09:07.191Z,6.99
2018-07-19T06:10:07.184Z,6.99
2018-07-19T06:11:07.203Z,5.99
2018-07-19T06:12:07.107Z,5.99
2018-07-19T06:13:07.102Z,5.99
2018-07-19T06:14:07.182Z,5.99
2018-07-19T06:15:07.107Z,5.99
2018-07-19T06:16:07.182Z,5.99
2018-07-19T06:17:07.210Z,5.99
2018-07-19T06:18:07.171Z,5.99
2018-07-19T06:19:07.104Z,5.99
2018-07-19T06:20:07.188Z,5.99
2018-07-19T06:21:07.166Z,5.30
2018-07-19T06:22:07.177Z,5.30
2018-07-19T06:23:07.042Z,5.30
2018-07-19T06:24:07.130Z,5.30
2018-07-19T06:25:07.171Z,5.30
2018-07-19T06:26:07.079Z,5.30
2018-07-19T06:27:07.080Z,5.30
2018-07-19T06:28:07.086Z,5.30
2018-07-19T06:29:07.082Z,5.30
2018-07-19T06:30:07.134Z,5.30
2018-07-19T06:31:07.177Z,5.00
2018-07-19T06:32:07.078Z,5.00
2018-07-19T06:33:07.050Z,5.00
2018-07-19T06:34:07.119Z,5.00
2018-07-19T06:35:07.114Z,5.00
2018-07-19T06:36:07.067Z,5.00
2018-07-19T06:37:07.134Z,5.00
2018-07-19T06:38:07.093Z,5.00
2018-07-19T06:39:07.088Z,5.00
2018-07-19T06:40:07.089Z,5.00
2018-07-19T06:41:07.149Z,4.70
2018-07-19T06:42:07.184Z,4.70
2018-07-19T06:43:07.094Z,4.70
2018-07-19T06:44:07.172Z,4.70
2018-07-19T06:45:07.233Z,4.70
2018-07-19T06:46:07.117Z,4.70
2018-07-19T06:47:07.169Z,4.70
2018-07-19T06:48:07.211Z,4.70
2018-07-19T06:49:07.154Z,4.70
2018-07-19T06:50:07.167Z,4.70
2018-07-19T06:51:07.200Z,4.60
2018-07-19T06:52:07.116Z,4.60
2018-07-19T06:53:07.157Z,4.60
2018-07-19T06:54:07.180Z,4.60
2018-07-19T06:55:07.221Z,4.60
2018-07-19T06:56:07.163Z,4.60
2018-07-19T06:57:07.124Z,4.60
2018-07-19T06:58:07.279Z,4.60
2018-07-19T06:59:07.240Z,4.60
2018-07-19T07:00:07.206Z,4.60
2018-07-19T07:01:07.203Z,3.50
2018-07-19T07:02:07.148Z,3.50
2018-07-19T07:03:07.221Z,3.50
2018-07-19T07:04:07.129Z,3.50
2018-07-19T07:05:07.163Z,3.50
2018-07-19T07:06:07.164Z,3.50
2018-07-19T07:07:07.103Z,3.50
2018-07-19T07:08:07.132Z,3.50
2018-07-19T07:09:07.239Z,3.50
2018-07-19T07:10:07.236Z,3.50
2018-07-19T07:11:07.207Z,3.50
2018-07-19T07:12:07.208Z,3.50
2018-07-19T07:13:07.142Z,3.50
2018-07-19T07:14:07.211Z,3.50
2018-07-19T07:15:07.234Z,3.50
2018-07-19T07:16:07.147Z,3.50
2018-07-19T07:17:07.177Z,3.50
2018-07-19T07:18:07.211Z,3.50
2018-07-19T07:19:07.216Z,3.50
2018-07-19T07:20:07.150Z,3.50
2018-07-19T07:21:07.297Z,2.60
2018-07-19T07:22:07.146Z,2.60
2018-07-19T07:23:07.156Z,2.60
2018-07-19T07:24:07.214Z,2.60
2018-07-19T07:25:07.150Z,2.60
2018-07-19T07:26:07.216Z,2.60
2018-07-19T07:27:07.223Z,2.60
2018-07-19T07:28:07.155Z,2.60
2018-07-19T07:29:07.152Z,2.60
2018-07-19T07:30:07.221Z,2.60
2018-07-19T07:31:07.210Z,4.20
2018-07-19T07:32:07.215Z,4.20
2018-07-19T07:33:07.143Z,4.20
2018-07-19T07:34:07.142Z,4.20
2018-07-19T07:35:07.130Z,4.20
2018-07-19T07:36:07.215Z,4.20
2018-07-19T07:37:07.128Z,4.20
2018-07-19T07:38:07.159Z,4.20
2018-07-19T07:39:07.218Z,4.20
2018-07-19T07:40:07.184Z,4.20
2018-07-19T07:41:07.234Z,4.30
2018-07-19T07:42:07.240Z,4.30
2018-07-19T07:43:07.260Z,4.30
2018-07-19T07:44:07.295Z,4.30
2018-07-19T07:45:07.184Z,4.30
2018-07-19T07:46:07.235Z,4.30
2018-07-19T07:47:07.139Z,4.30
2018-07-19T07:48:07.200Z,4.30
2018-07-19T07:49:07.267Z,4.30
2018-07-19T07:50:07.199Z,4.30
2018-07-19T07:51:07.198Z,2.90
2018-07-19T07:52:07.205Z,2.90
2018-07-19T07:53:07.194Z,2.90
2018-07-19T07:54:07.215Z,2.90
2018-07-19T07:55:07.196Z,2.90
2018-07-19T07:56:07.237Z,2.90
2018-07-19T07:57:07.208Z,2.90
2018-07-19T07:58:07.265Z,2.90
2018-07-19T07:59:07.196Z,2.90
2018-07-19T08:00:07.266Z,2.90
2018-07-19T08:01:07.199Z,3.80
2018-07-19T08:02:07.243Z,3.80
2018-07-19T08:03:07.205Z,3.80
2018-07-19T08:04:07.242Z,3.80
2018-07-19T08:05:07.177Z,3.80
2018-07-19T08:06:07.245Z,3.80
2018-07-19T08:07:07.245Z,3.80
2018-07-19T08:08:07.184Z,3.80
2018-07-19T08:09:07.248Z,3.80
2018-07-19T08:10:07.140Z,3.80
2018-07-19T08:11:07.209Z,2.50
2018-07-19T08:12:07.248Z,2.50
2018-07-19T08:13:07.255Z,2.50
2018-07-19T08:14:07.273Z,2.50
2018-07-19T08:15:07.153Z,2.50
2018-07-19T08:16:07.270Z,2.50
2018-07-19T08:17:07.274Z,2.50
2018-07-19T08:18:07.277Z,2.50
2018-07-19T08:19:07.232Z,2.50
2018-07-19T08:20:07.273Z,2.50
2018-07-19T08:21:07.255Z,2.50
2018-07-19T08:22:07.180Z,2.50
2018-07-19T08:23:07.244Z,2.50
2018-07-19T08:24:07.231Z,2.50
2018-07-19T08:25:07.166Z,2.50
2018-07-19T08:26:07.239Z,2.50
2018-07-19T08:27:07.181Z,2.50
2018-07-19T08:28:07.283Z,2.50
2018-07-19T08:29:07.301Z,2.50
2018-07-19T08:30:07.234Z,2.50
2018-07-19T08:31:07.167Z,1.80
2018-07-19T08:32:07.245Z,1.80
2018-07-19T08:33:07.169Z,1.80
2018-07-19T08:34:07.231Z,1.80
2018-07-19T08:35:07.225Z,1.80
2018-07-19T08:36:07.306Z,1.80
2018-07-19T08:37:07.202Z,1.80
2018-07-19T08:38:07.230Z,1.80
2018-07-19T08:39:07.293Z,1.80
2018-07-19T08:40:07.288Z,1.80
2018-07-19T08:41:07.291Z,1.80
2018-07-19T08:42:07.194Z,2.70
2018-07-19T08:43:07.298Z,2.70
2018-07-19T08:44:07.300Z,2.70
2018-07-19T08:45:07.178Z,2.70
2018-07-19T08:46:07.240Z,2.70
2018-07-19T08:47:07.343Z,2.70
2018-07-19T08:48:07.301Z,2.70
2018-07-19T08:49:07.242Z,2.70
2018-07-19T08:50:07.272Z,2.70
2018-07-19T08:51:07.196Z,2.70
2018-07-19T08:52:07.235Z,2.50
2018-07-19T08:53:07.277Z,2.50
2018-07-19T08:54:07.301Z,2.50
2018-07-19T08:55:07.295Z,2.50
2018-07-19T08:56:07.217Z,2.50
2018-07-19T08:57:07.203Z,2.50
2018-07-19T08:58:07.234Z,2.50
2018-07-19T08:59:07.317Z,2.50
2018-07-19T09:00:07.298Z,2.50
2018-07-19T09:01:07.308Z,2.50
2018-07-19T09:02:07.342Z,1.60
2018-07-19T09:03:07.240Z,1.60
2018-07-19T09:04:07.204Z,1.60
2018-07-19T09:05:07.320Z,1.60
2018-07-19T09:06:07.248Z,1.60
2018-07-19T09:07:07.307Z,1.60
2018-07-19T09:08:07.192Z,1.60
2018-07-19T09:09:07.196Z,1.60
2018-07-19T09:10:07.325Z,1.60
2018-07-19T09:11:07.263Z,1.60
2018-07-19T09:12:07.295Z,1.50
2018-07-19T09:13:07.194Z,1.50
2018-07-19T09:14:07.319Z,1.50
2018-07-19T09:15:07.322Z,1.50
2018-07-19T09:16:07.326Z,1.50
2018-07-19T09:17:07.250Z,1.50
2018-07-19T09:18:07.216Z,1.50
2018-07-19T09:19:07.273Z,1.50
2018-07-19T09:20:07.279Z,1.50
2018-07-19T09:21:07.220Z,1.50
2018-07-19T09:22:07.320Z,2.20
2018-07-19T09:23:07.276Z,2.20
2018-07-19T09:24:07.320Z,2.20
2018-07-19T09:25:07.320Z,2.20
2018-07-19T09:26:07.339Z,2.20
2018-07-19T09:27:07.277Z,2.20
2018-07-19T09:28:07.300Z,2.20
2018-07-19T09:29:07.339Z,2.20
2018-07-19T09:30:07.299Z,2.20
2018-07-19T09:31:07.264Z,2.20
2018-07-19T09:32:07.284Z,2.00
2018-07-19T09:33:07.280Z,2.00
2018-07-19T09:34:07.255Z,2.00
2018-07-19T09:35:07.182Z,2.00
2018-07-19T09:36:07.194Z,2.00
2018-07-19T09:37:07.297Z,2.00
2018-07-19T09:38:07.290Z,2.00
2018-07-19T09:39:07.199Z,2.00
2018-07-19T09:40:07.265Z,2.00
2018-07-19T09:41:07.295Z,2.00
2018-07-19T09:42:07.252Z,3.10
2018-07-19T09:43:07.329Z,3.10
2018-07-19T09:44:07.311Z,3.10
2018-07-19T09:45:07.210Z,3.10
2018-07-19T09:46:07.279Z,3.10
2018-07-19T09:47:07.287Z,3.10
2018-07-19T09:48:07.312Z,3.10
2018-07-19T09:49:07.329Z,3.10
2018-07-19T09:50:07.271Z,3.10
2018-07-19T09:51:07.351Z,3.10
2018-07-19T09:52:07.249Z,2.80
2018-07-19T09:53:07.253Z,2.80
2018-07-19T09:54:07.319Z,2.80
2018-07-19T09:55:07.317Z,2.80
2018-07-19T09:56:07.261Z,2.80
2018-07-19T09:57:07.250Z,2.80
2018-07-19T09:58:07.321Z,2.80
2018-07-19T09:59:07.323Z,2.80
2018-07-19T10:00:07.263Z,2.80
2018-07-19T10:01:07.254Z,2.80
2018-07-19T10:02:07.327Z,2.99
2018-07-19T10:03:07.260Z,2.99
2018-07-19T10:04:07.323Z,2.99
2018-07-19T10:05:07.259Z,2.99
2018-07-19T10:06:07.261Z,2.99
2018-07-19T10:07:07.328Z,2.99
2018-07-19T10:08:07.299Z,2.99
2018-07-19T10:10:07.300Z,2.99
2018-07-19T10:11:07.329Z,2.99
2018-07-19T10:12:07.379Z,2.40
2018-07-19T10:13:07.315Z,2.40
2018-07-19T10:14:07.277Z,2.40
2018-07-19T10:15:07.365Z,2.40
2018-07-19T10:16:07.275Z,2.40
2018-07-19T10:17:07.372Z,2.40
2018-07-19T10:18:07.297Z,2.40
2018-07-19T10:19:07.335Z,2.40
2018-07-19T10:20:07.236Z,2.40
2018-07-19T10:21:07.338Z,2.40
2018-07-19T10:22:07.268Z,3.90
2018-07-19T10:23:07.274Z,3.90
2018-07-19T10:24:07.338Z,3.90
2018-07-19T10:25:07.339Z,3.90
2018-07-19T10:26:07.273Z,3.90
2018-07-19T10:27:07.344Z,3.90
2018-07-19T10:28:07.338Z,3.90
2018-07-19T10:29:07.273Z,3.90
2018-07-19T10:30:07.228Z,3.90
2018-07-19T10:31:07.340Z,3.90
2018-07-19T10:32:07.456Z,2.40
2018-07-19T10:33:07.386Z,2.40
2018-07-19T10:34:07.392Z,2.40
2018-07-19T10:35:07.359Z,2.40
2018-07-19T10:36:07.388Z,2.40
2018-07-19T10:37:07.347Z,2.40
2018-07-19T10:38:07.374Z,2.40
2018-07-19T10:39:07.348Z,2.40
2018-07-19T10:40:07.382Z,2.40
2018-07-19T10:41:07.395Z,2.40
2018-07-19T10:42:07.288Z,3.30
2018-07-19T10:43:07.415Z,3.30
2018-07-19T10:44:07.353Z,3.30
2018-07-19T10:45:07.356Z,3.30
2018-07-19T10:46:07.300Z,3.30
2018-07-19T10:47:07.294Z,3.30
2018-07-19T10:48:07.353Z,3.30
2018-07-19T10:49:07.288Z,3.30
2018-07-19T10:50:07.376Z,3.30
2018-07-19T10:51:07.247Z,3.30
2018-07-19T10:52:07.284Z,3.70
2018-07-19T10:53:07.386Z,3.70
2018-07-19T10:54:07.281Z,3.70
2018-07-19T10:55:07.382Z,3.70
2018-07-19T10:56:07.266Z,3.70
2018-07-19T10:57:07.315Z,3.70
2018-07-19T10:58:07.380Z,3.70
2018-07-19T10:59:07.363Z,3.70
2018-07-19T11:00:07.637Z,3.70
2018-07-19T11:01:07.267Z,3.70
2018-07-19T11:02:07.318Z,3.10
2018-07-19T11:03:07.266Z,3.10
2018-07-19T11:04:07.379Z,3.10
2018-07-19T11:05:07.390Z,3.10
2018-07-19T11:06:07.337Z,3.10
2018-07-19T11:07:07.334Z,3.10
2018-07-19T11:08:07.268Z,3.10
2018-07-19T11:09:07.337Z,3.10
2018-07-19T11:10:07.395Z,3.10
2018-07-19T11:11:07.378Z,3.10
2018-07-19T11:12:07.333Z,3.20
2018-07-19T11:13:07.303Z,3.20
2018-07-19T11:14:07.241Z,3.20
2018-07-19T11:15:07.328Z,3.20
2018-07-19T11:16:07.264Z,3.20
2018-07-19T11:17:07.322Z,3.20
2018-07-19T11:18:07.309Z,3.20
2018-07-19T11:19:07.351Z,3.20
2018-07-19T11:20:07.267Z,3.20
2018-07-19T11:21:07.241Z,3.20
2018-07-19T11:22:07.274Z,3.90
2018-07-19T11:23:07.346Z,3.90
2018-07-19T11:24:07.333Z,3.90
2018-07-19T11:25:07.413Z,3.90
2018-07-19T11:26:07.339Z,3.90
2018-07-19T11:27:07.383Z,3.90
2018-07-19T11:28:07.415Z,3.90
2018-07-19T11:29:07.411Z,3.90
2018-07-19T11:30:07.366Z,3.90
2018-07-19T11:31:07.397Z,3.90
2018-07-19T11:32:07.418Z,3.40
2018-07-19T11:33:07.355Z,3.40
2018-07-19T11:34:07.357Z,3.40
2018-07-19T11:35:07.288Z,3.40
2018-07-19T11:36:07.325Z,3.40
2018-07-19T11:37:07.344Z,3.40
2018-07-19T11:38:07.310Z,3.40
2018-07-19T11:39:07.416Z,3.40
2018-07-19T11:40:07.366Z,3.40
2018-07-19T11:41:07.300Z,3.40
2018-07-19T11:42:07.312Z,2.80
2018-07-19T11:43:07.261Z,2.80
2018-07-19T11:44:07.300Z,2.80
2018-07-19T11:45:07.386Z,2.80
2018-07-19T11:46:07.387Z,2.80
2018-07-19T11:47:07.386Z,2.80
2018-07-19T11:48:07.320Z,2.80
2018-07-19T11:49:07.325Z,2.80
2018-07-19T11:50:07.356Z,2.80
2018-07-19T11:51:07.393Z,2.80
2018-07-19T11:52:07.394Z,4.00
2018-07-19T11:53:07.396Z,4.00
2018-07-19T11:54:07.282Z,4.00
2018-07-19T11:55:07.398Z,4.00
2018-07-19T11:56:07.392Z,4.00
2018-07-19T11:57:07.388Z,4.00
2018-07-19T11:58:07.351Z,4.00
2018-07-19T11:59:07.392Z,4.00
2018-07-19T12:00:07.394Z,4.00
2018-07-19T12:01:07.421Z,4.00
2018-07-19T12:02:07.423Z,3.40
2018-07-19T12:03:07.366Z,3.40
2018-07-19T12:04:07.362Z,3.40
2018-07-19T12:05:07.382Z,3.40
2018-07-19T12:06:07.429Z,3.40
2018-07-19T12:07:07.409Z,3.40
2018-07-19T12:08:07.432Z,3.40
2018-07-19T12:09:07.411Z,3.40
2018-07-19T12:10:07.309Z,3.40
2018-07-19T12:11:07.411Z,3.40
2018-07-19T12:12:07.347Z,4.90
2018-07-19T12:13:07.369Z,4.90
2018-07-19T12:14:07.351Z,4.90
2018-07-19T12:15:07.418Z,4.90
2018-07-19T12:16:07.342Z,4.90
2018-07-19T12:17:07.416Z,4.90
2018-07-19T12:18:07.386Z,4.90
2018-07-19T12:19:07.422Z,4.90
2018-07-19T12:20:07.349Z,4.90
2018-07-19T12:21:07.417Z,4.90
2018-07-19T12:22:07.411Z,2.90
2018-07-19T12:23:07.355Z,2.90
2018-07-19T12:24:07.370Z,2.90
2018-07-19T12:25:07.373Z,2.90
2018-07-19T12:26:07.355Z,2.90
2018-07-19T12:27:07.289Z,2.90
2018-07-19T12:28:07.356Z,2.90
2018-07-19T12:29:07.365Z,2.90
2018-07-19T12:30:07.379Z,2.90
2018-07-19T12:31:07.413Z,2.90
2018-07-19T12:32:07.366Z,1.90
2018-07-19T12:33:07.391Z,1.90
2018-07-19T12:34:07.385Z,1.90
2018-07-19T12:35:07.461Z,1.90
2018-07-19T12:36:07.462Z,1.90
2018-07-19T12:37:07.455Z,1.90
2018-07-19T12:38:07.453Z,1.90
2018-07-19T12:39:07.452Z,1.90
2018-07-19T12:40:07.472Z,1.90
2018-07-19T12:41:07.468Z,1.90
2018-07-19T12:42:07.463Z,4.70
2018-07-19T12:43:07.437Z,4.70
2018-07-19T12:44:07.394Z,4.70
2018-07-19T12:45:07.370Z,4.70
2018-07-19T12:46:07.436Z,4.70
2018-07-19T12:47:07.451Z,4.70
2018-07-19T12:48:07.340Z,4.70
2018-07-19T12:49:07.477Z,4.70
2018-07-19T12:50:07.476Z,4.70
2018-07-19T12:51:07.467Z,4.70
2018-07-19T12:52:07.505Z,2.80
2018-07-19T12:53:07.369Z,2.80
2018-07-19T12:54:07.376Z,2.80
2018-07-19T12:55:07.439Z,2.80
2018-07-19T12:56:07.398Z,2.80
2018-07-19T12:57:07.443Z,2.80
2018-07-19T12:58:07.445Z,2.80
2018-07-19T12:59:07.426Z,2.80
2018-07-19T13:00:07.413Z,2.80
2018-07-19T13:01:07.381Z,2.80
2018-07-19T13:02:07.428Z,2.50
2018-07-19T13:03:07.431Z,2.50
2018-07-19T13:04:07.339Z,2.50
2018-07-19T13:05:07.433Z,2.50
2018-07-19T13:06:07.343Z,2.50
2018-07-19T13:07:07.382Z,2.50
2018-07-19T13:08:07.427Z,2.50
2018-07-19T13:09:07.345Z,2.50
2018-07-19T13:10:07.427Z,2.50
2018-07-19T13:11:07.409Z,2.50
2018-07-19T13:12:07.386Z,2.80
2018-07-19T13:13:07.485Z,2.80
2018-07-19T13:14:07.388Z,2.80
2018-07-19T13:15:07.516Z,2.80
2018-07-19T13:16:07.466Z,2.80
2018-07-19T13:17:07.389Z,2.80
2018-07-19T13:18:07.464Z,2.80
2018-07-19T13:19:07.393Z,2.80